Time;durP1;ratioP1;P1;durP2;ratioP2;P2;SDS_P1;SDS_P2;PMS_P1;PMS_P2;Temp;Humidity;BMP_temperature;BMP_pressure;BME280_temperature;BME280_humidity;BME280_pressure;Samples;Min_cycle;Max_cycle;Signal;HPM_P1;HPM_P2
2023/09/18 00:00:25;;;;;;;0.38;0.38;;;22.90;99.90;;;;;;7398582;19;20155;-86
2023/09/18 00:02:50;;;;;;;0.10;0.10;;;22.90;99.90;;;;;;7400064;19;20142;-86
2023/09/18 00:05:16;;;;;;;0.17;0.17;;;23.00;99.90;;;;;;7396304;19;20186;-86
2023/09/18 00:07:43;;;;;;;0.20;0.20;;;23.00;99.90;;;;;;7401567;19;20139;-86
2023/09/18 00:10:18;;;;;;;0.10;0.10;;;22.80;99.90;;;;;;7397561;19;20146;-86
2023/09/18 00:12:44;;;;;;;0.10;0.10;;;22.80;99.90;;;;;;7399190;19;20138;-85
2023/09/18 00:15:10;;;;;;;0.17;0.17;;;22.80;99.90;;;;;;7400175;19;20150;-85
2023/09/18 00:17:36;;;;;;;0.22;0.22;;;22.90;99.90;;;;;;7400622;19;20139;-86
2023/09/18 00:20:06;;;;;;;0.28;0.28;;;22.80;99.90;;;;;;7400507;19;20179;-86
2023/09/18 00:22:32;;;;;;;0.10;0.10;;;22.80;99.90;;;;;;7395817;19;20194;-86
2023/09/18 00:24:58;;;;;;;0.20;0.20;;;22.80;99.90;;;;;;7397248;19;20139;-86
2023/09/18 00:27:23;;;;;;;0.22;0.22;;;22.90;99.90;;;;;;7398648;19;20546;-85
2023/09/18 00:29:49;;;;;;;0.22;0.22;;;22.50;99.90;;;;;;7398735;19;20142;-86
2023/09/18 00:32:15;;;;;;;0.10;0.10;;;22.50;99.90;;;;;;7399011;19;20279;-86
2023/09/18 00:34:41;;;;;;;0.08;0.08;;;22.60;99.90;;;;;;7398011;19;20147;-85
2023/09/18 00:37:06;;;;;;;0.17;0.17;;;22.70;99.90;;;;;;7398663;19;20135;-85
2023/09/18 00:39:32;;;;;;;0.20;0.20;;;22.60;99.90;;;;;;7398506;19;20177;-85
2023/09/18 00:41:58;;;;;;;0.20;0.20;;;22.40;99.90;;;;;;7395887;19;20154;-84
2023/09/18 00:44:26;;;;;;;0.13;0.13;;;22.30;99.90;;;;;;7396699;19;20145;-84
2023/09/18 00:46:54;;;;;;;0.25;0.25;;;22.50;99.90;;;;;;7397791;19;20161;-87
2023/09/18 00:49:20;;;;;;;0.22;0.22;;;22.50;99.90;;;;;;7399894;19;20146;-86
2023/09/18 00:51:47;;;;;;;0.10;0.10;;;22.60;99.90;;;;;;7399506;19;20167;-85
2023/09/18 00:54:18;;;;;;;0.45;0.45;;;22.70;99.90;;;;;;7396619;19;20150;-86
2023/09/18 00:56:45;;;;;;;0.08;0.08;;;22.70;99.90;;;;;;7396894;19;20139;-85
2023/09/18 00:59:12;;;;;;;0.13;0.13;;;22.80;99.90;;;;;;7396536;19;20150;-85
2023/09/18 01:01:39;;;;;;;0.45;0.45;;;22.90;99.90;;;;;;7395980;19;20222;-86
2023/09/18 01:04:05;;;;;;;0.20;0.20;;;22.90;99.90;;;;;;7398425;19;20153;-87
2023/09/18 01:06:30;;;;;;;0.20;0.20;;;22.90;99.90;;;;;;7397265;19;20135;-85
2023/09/18 01:08:56;;;;;;;0.45;0.32;;;22.80;99.90;;;;;;7397668;19;20150;-86
2023/09/18 01:11:54;;;;;;;0.30;0.30;;;22.90;99.90;;;;;;7400802;19;20137;-85
2023/09/18 01:14:33;;;;;;;0.10;0.10;;;22.80;99.90;;;;;;7394340;19;20135;-86
2023/09/18 01:17:04;;;;;;;0.00;0.00;;;22.80;99.90;;;;;;7399209;19;20141;-85
2023/09/18 01:19:37;;;;;;;0.10;0.10;;;22.80;99.90;;;;;;7397301;19;20149;-86
2023/09/18 01:22:07;;;;;;;0.30;0.10;;;22.80;99.90;;;;;;7390998;19;20134;-86
2023/09/18 01:24:34;;;;;;;0.10;0.10;;;22.70;99.90;;;;;;7397092;19;20144;-85
2023/09/18 01:26:59;;;;;;;0.20;0.20;;;22.70;99.90;;;;;;7398709;19;20131;-86
2023/09/18 01:29:25;;;;;;;0.20;0.20;;;22.80;99.90;;;;;;7398897;19;20158;-86
2023/09/18 01:31:52;;;;;;;0.25;0.25;;;22.80;99.90;;;;;;7396455;19;20131;-86
2023/09/18 01:34:25;;;;;;;0.20;0.20;;;22.90;99.90;;;;;;7397743;19;20214;-86
2023/09/18 01:36:52;;;;;;;0.20;0.20;;;22.90;99.90;;;;;;7395683;19;20130;-85
2023/09/18 01:39:20;;;;;;;0.30;0.30;;;22.80;99.90;;;;;;7397070;19;20160;-85
2023/09/18 01:41:46;;;;;;;0.20;0.20;;;22.60;99.90;;;;;;7394903;19;20138;-85
2023/09/18 01:44:12;;;;;;;0.20;0.20;;;22.60;99.90;;;;;;7397214;19;21175;-85
2023/09/18 01:46:39;;;;;;;0.20;0.20;;;22.60;99.90;;;;;;7394830;19;20135;-87
2023/09/18 01:49:05;;;;;;;0.10;0.10;;;22.70;99.90;;;;;;7396839;19;20145;-86
2023/09/18 01:51:32;;;;;;;0.25;0.25;;;22.70;99.90;;;;;;7395204;19;20139;-85
2023/09/18 01:53:58;;;;;;;0.13;0.13;;;22.90;99.90;;;;;;7395666;19;20131;-85
2023/09/18 01:56:24;;;;;;;0.25;0.20;;;22.90;99.90;;;;;;7396451;19;20165;-85
2023/09/18 01:58:49;;;;;;;0.15;0.15;;;23.00;99.90;;;;;;7394771;19;20167;-85
2023/09/18 02:01:15;;;;;;;0.13;0.13;;;23.00;99.90;;;;;;7393479;19;20138;-85
2023/09/18 02:03:41;;;;;;;0.30;0.20;;;23.00;99.90;;;;;;7391699;19;20570;-86
2023/09/18 02:06:10;;;;;;;0.20;0.20;;;23.10;99.90;;;;;;7389695;19;20152;-83
2023/09/18 02:08:36;;;;;;;0.20;0.20;;;23.20;99.90;;;;;;7393608;19;20157;-85
2023/09/18 02:11:03;;;;;;;0.20;0.20;;;23.20;99.90;;;;;;7395694;19;20167;-85
2023/09/18 02:13:29;;;;;;;0.15;0.15;;;23.20;99.90;;;;;;7394084;19;20166;-86
2023/09/18 02:15:55;;;;;;;0.10;0.10;;;23.10;99.90;;;;;;7396046;19;20222;-86
2023/09/18 02:18:21;;;;;;;0.15;0.15;;;23.00;99.90;;;;;;7396852;19;20157;-85
2023/09/18 02:20:48;;;;;;;0.10;0.10;;;23.00;99.90;;;;;;7396823;19;20663;-86
2023/09/18 02:23:18;;;;;;;0.20;0.20;;;23.00;99.90;;;;;;7396280;19;20138;-86
2023/09/18 02:25:44;;;;;;;0.10;0.10;;;22.90;99.90;;;;;;7395383;19;20135;-86
2023/09/18 02:28:10;;;;;;;0.30;0.30;;;22.50;99.90;;;;;;7394452;19;20138;-85
2023/09/18 02:30:36;;;;;;;0.20;0.20;;;22.50;99.90;;;;;;7396135;19;20141;-85
2023/09/18 02:33:03;;;;;;;0.15;0.15;;;22.70;99.90;;;;;;7398681;19;20468;-86
2023/09/18 02:35:30;;;;;;;0.10;0.10;;;22.60;99.90;;;;;;7395424;19;20131;-86
2023/09/18 02:37:55;;;;;;;0.10;0.10;;;22.40;99.90;;;;;;7394474;19;20582;-86
2023/09/18 02:40:21;;;;;;;0.10;0.10;;;22.30;99.90;;;;;;7394739;19;20142;-85
2023/09/18 02:42:49;;;;;;;0.20;0.20;;;22.10;99.90;;;;;;7389929;19;20258;-85
2023/09/18 02:45:15;;;;;;;0.10;0.10;;;22.20;99.90;;;;;;7395106;19;20154;-85
2023/09/18 02:47:42;;;;;;;0.10;0.10;;;22.30;99.90;;;;;;7395268;19;20149;-86
2023/09/18 02:50:08;;;;;;;0.10;0.10;;;22.30;99.90;;;;;;7394291;19;20146;-86
2023/09/18 02:52:33;;;;;;;0.10;0.10;;;22.20;99.90;;;;;;7393056;19;20149;-84
2023/09/18 02:54:59;;;;;;;0.22;0.10;;;22.20;99.90;;;;;;7393097;19;20159;-85
2023/09/18 02:57:25;;;;;;;0.10;0.10;;;22.10;99.90;;;;;;7394835;19;20850;-85
2023/09/18 02:59:51;;;;;;;0.10;0.10;;;22.10;99.90;;;;;;7393954;19;20131;-86
2023/09/18 03:02:17;;;;;;;0.15;0.15;;;22.30;99.90;;;;;;7391947;19;20159;-86
2023/09/18 03:04:42;;;;;;;0.20;0.20;;;22.40;99.90;;;;;;7391925;19;20174;-85
2023/09/18 03:07:08;;;;;;;0.10;0.10;;;22.50;99.90;;;;;;7393112;19;20141;-86
2023/09/18 03:09:35;;;;;;;0.17;0.17;;;22.50;99.90;;;;;;7391478;19;20483;-86
2023/09/18 03:12:01;;;;;;;0.22;0.22;;;22.60;99.90;;;;;;7393487;19;20161;-83
2023/09/18 03:14:26;;;;;;;0.20;0.20;;;22.60;99.90;;;;;;7394594;19;20151;-85
2023/09/18 03:16:53;;;;;;;0.20;0.20;;;22.60;99.90;;;;;;7390220;19;20173;-86
2023/09/18 03:19:19;;;;;;;0.10;0.10;;;22.60;99.90;;;;;;7391664;19;20134;-86
2023/09/18 03:21:45;;;;;;;0.20;0.20;;;22.30;99.90;;;;;;7390270;19;20147;-85
2023/09/18 03:24:10;;;;;;;0.08;0.08;;;22.20;99.90;;;;;;7391246;19;20165;-84
2023/09/18 03:26:36;;;;;;;0.17;0.17;;;21.90;99.90;;;;;;7392161;19;20515;-85
2023/09/18 03:29:02;;;;;;;0.20;0.20;;;22.00;99.90;;;;;;7392570;19;20150;-85
2023/09/18 03:31:29;;;;;;;0.35;0.35;;;22.10;99.90;;;;;;7393519;19;20202;-84
2023/09/18 03:33:54;;;;;;;0.15;0.15;;;22.20;99.90;;;;;;7391358;19;20135;-85
2023/09/18 03:36:23;;;;;;;0.17;0.17;;;22.20;99.90;;;;;;7390040;19;20171;-83
2023/09/18 03:38:49;;;;;;;0.17;0.17;;;21.90;99.90;;;;;;7390689;19;20135;-85
2023/09/18 03:41:15;;;;;;;0.10;0.10;;;21.60;99.90;;;;;;7390573;19;20148;-84
2023/09/18 03:43:41;;;;;;;0.13;0.13;;;21.60;99.90;;;;;;7390590;19;20139;-85
2023/09/18 03:46:07;;;;;;;0.08;0.08;;;21.60;99.90;;;;;;7396539;19;20482;-85
2023/09/18 03:48:37;;;;;;;0.20;0.20;;;21.70;99.90;;;;;;7397800;19;20157;-84
2023/09/18 03:51:06;;;;;;;0.10;0.10;;;21.80;99.90;;;;;;7398683;19;20138;-85
2023/09/18 03:53:33;;;;;;;0.10;0.10;;;22.00;99.90;;;;;;7399772;19;20141;-85
2023/09/18 03:55:59;;;;;;;0.10;0.10;;;22.10;99.90;;;;;;7397460;19;20157;-85
2023/09/18 03:58:25;;;;;;;0.10;0.10;;;21.90;99.90;;;;;;7399400;19;20209;-85
2023/09/18 04:00:51;;;;;;;0.20;0.20;;;21.90;99.90;;;;;;7399233;19;20159;-85
2023/09/18 04:03:17;;;;;;;0.20;0.20;;;21.80;99.90;;;;;;7399478;19;20147;-85
2023/09/18 04:05:43;;;;;;;0.13;0.13;;;21.80;99.90;;;;;;7399639;19;20154;-85
2023/09/18 04:08:09;;;;;;;0.17;0.17;;;21.90;99.90;;;;;;7403157;19;20145;-85
2023/09/18 04:10:34;;;;;;;0.20;0.20;;;22.00;99.90;;;;;;7399750;19;20225;-85
2023/09/18 04:13:00;;;;;;;0.50;0.50;;;22.10;99.90;;;;;;7397615;19;20158;-85
2023/09/18 04:15:27;;;;;;;0.15;0.15;;;22.20;99.90;;;;;;7397202;19;20146;-84
2023/09/18 04:17:53;;;;;;;0.10;0.10;;;22.20;99.90;;;;;;7397809;19;20159;-85
2023/09/18 04:20:20;;;;;;;0.40;0.40;;;22.20;99.90;;;;;;7400600;19;20155;-86
2023/09/18 04:22:51;;;;;;;0.20;0.20;;;22.10;99.90;;;;;;7399070;19;20146;-85
2023/09/18 04:25:16;;;;;;;0.10;0.10;;;21.80;99.90;;;;;;7396998;19;20190;-85
2023/09/18 04:27:42;;;;;;;0.13;0.13;;;21.90;99.90;;;;;;7398129;19;20475;-86
2023/09/18 04:30:11;;;;;;;0.10;0.10;;;22.20;99.90;;;;;;7398967;19;20713;-85
2023/09/18 04:32:37;;;;;;;0.10;0.10;;;22.20;99.90;;;;;;7400127;19;20142;-85
2023/09/18 04:35:05;;;;;;;0.15;0.15;;;22.10;99.90;;;;;;7397620;19;20149;-85
2023/09/18 04:37:31;;;;;;;0.10;0.10;;;22.10;99.90;;;;;;7397456;19;20155;-83
2023/09/18 04:39:58;;;;;;;0.10;0.10;;;21.80;99.90;;;;;;7398921;19;20151;-85
2023/09/18 04:42:23;;;;;;;0.10;0.10;;;21.70;99.90;;;;;;7397710;19;20265;-85
2023/09/18 04:44:49;;;;;;;0.20;0.20;;;21.70;99.90;;;;;;7398512;19;20182;-85
2023/09/18 04:47:15;;;;;;;0.20;0.20;;;21.80;99.90;;;;;;7396588;19;20135;-85
2023/09/18 04:49:42;;;;;;;0.45;0.35;;;21.90;99.90;;;;;;7397516;19;20154;-84
2023/09/18 04:52:07;;;;;;;0.10;0.10;;;22.10;99.90;;;;;;7397176;19;20575;-84
2023/09/18 04:54:33;;;;;;;0.20;0.20;;;22.20;99.90;;;;;;7395029;19;20131;-83
2023/09/18 04:56:59;;;;;;;0.20;0.20;;;22.00;99.90;;;;;;7398320;19;20157;-85
2023/09/18 04:59:24;;;;;;;0.15;0.15;;;21.80;99.90;;;;;;7399547;19;20137;-85
2023/09/18 05:01:50;;;;;;;0.10;0.10;;;21.70;99.90;;;;;;7394618;19;20741;-85
2023/09/18 05:04:16;;;;;;;0.10;0.10;;;21.90;99.90;;;;;;7396640;19;20165;-86
2023/09/18 05:06:41;;;;;;;0.05;0.05;;;22.00;99.90;;;;;;7394139;19;20607;-84
2023/09/18 05:09:07;;;;;;;0.35;0.28;;;22.10;99.90;;;;;;7393802;19;20178;-84
2023/09/18 05:11:34;;;;;;;0.43;0.43;;;22.30;99.90;;;;;;7394524;19;20142;-85
2023/09/18 05:13:59;;;;;;;0.32;0.32;;;22.10;99.90;;;;;;7392351;19;20161;-84
2023/09/18 05:16:28;;;;;;;0.10;0.10;;;22.00;99.90;;;;;;7391118;19;20139;-84
2023/09/18 05:18:54;;;;;;;0.10;0.10;;;22.00;99.90;;;;;;7392351;19;20206;-84
2023/09/18 05:21:24;;;;;;;0.20;0.20;;;22.10;99.90;;;;;;7390769;19;20179;-83
2023/09/18 05:23:50;;;;;;;0.10;0.10;;;22.20;99.90;;;;;;7392293;19;20148;-82
2023/09/18 05:26:16;;;;;;;0.03;0.03;;;22.20;99.90;;;;;;7392019;19;20134;-84
2023/09/18 05:28:42;;;;;;;0.10;0.10;;;22.30;99.90;;;;;;7394278;19;20577;-85
2023/09/18 05:31:08;;;;;;;0.17;0.17;;;22.40;99.90;;;;;;7394932;19;20126;-82
2023/09/18 05:33:34;;;;;;;0.10;0.10;;;22.50;99.90;;;;;;7393400;19;20139;-84
2023/09/18 05:35:59;;;;;;;0.17;0.17;;;22.50;99.90;;;;;;7395591;19;20126;-86
2023/09/18 05:38:25;;;;;;;0.00;0.00;;;22.50;99.90;;;;;;7395068;19;20622;-83
2023/09/18 05:40:51;;;;;;;0.45;0.45;;;22.50;99.90;;;;;;7396050;19;20139;-84
2023/09/18 05:43:18;;;;;;;0.10;0.10;;;22.40;99.90;;;;;;7395510;19;20127;-87
2023/09/18 05:45:43;;;;;;;0.00;0.00;;;22.30;99.90;;;;;;7397714;19;20136;-85
2023/09/18 05:48:10;;;;;;;0.20;0.20;;;22.20;99.90;;;;;;7395838;19;20134;-84
2023/09/18 05:50:35;;;;;;;0.10;0.10;;;22.20;99.90;;;;;;7392503;19;20130;-82
2023/09/18 05:53:03;;;;;;;0.20;0.20;;;22.00;99.90;;;;;;7393807;19;20129;-83
2023/09/18 05:55:30;;;;;;;0.10;0.10;;;22.10;99.90;;;;;;7392013;19;20126;-83
2023/09/18 05:58:01;;;;;;;0.20;0.20;;;22.10;99.90;;;;;;7394104;19;20218;-82
2023/09/18 06:00:27;;;;;;;0.10;0.10;;;22.00;99.90;;;;;;7393170;19;20138;-82
2023/09/18 06:02:56;;;;;;;0.10;0.10;;;21.90;99.90;;;;;;7392092;19;20126;-81
2023/09/18 06:05:22;;;;;;;0.10;0.10;;;22.00;99.90;;;;;;7390140;19;20182;-82
2023/09/18 06:07:48;;;;;;;0.15;0.15;;;22.10;99.90;;;;;;7391496;19;20196;-83
2023/09/18 06:10:15;;;;;;;0.30;0.30;;;22.10;99.90;;;;;;7394604;19;20153;-87
2023/09/18 06:12:40;;;;;;;0.10;0.10;;;22.20;99.90;;;;;;7392712;19;20143;-85
2023/09/18 06:15:11;;;;;;;0.10;0.10;;;22.30;99.90;;;;;;7392656;19;20460;-85
2023/09/18 06:17:42;;;;;;;0.22;0.22;;;22.20;99.90;;;;;;7392193;19;20150;-85
2023/09/18 06:20:09;;;;;;;0.10;0.10;;;22.10;99.90;;;;;;7393426;19;20150;-86
2023/09/18 06:22:37;;;;;;;0.20;0.20;;;22.10;99.90;;;;;;7391116;19;20259;-85
2023/09/18 06:25:03;;;;;;;0.20;0.20;;;22.20;99.90;;;;;;7394276;19;20202;-86
2023/09/18 06:27:32;;;;;;;0.00;0.00;;;22.20;99.90;;;;;;7392966;19;20134;-86
2023/09/18 06:30:07;;;;;;;0.17;0.17;;;22.30;99.90;;;;;;7394994;19;20515;-85
2023/09/18 06:32:33;;;;;;;0.10;0.10;;;22.30;99.90;;;;;;7392461;19;20146;-87
2023/09/18 06:35:00;;;;;;;0.10;0.10;;;22.20;99.90;;;;;;7391090;19;20142;-87
2023/09/18 06:37:26;;;;;;;0.10;0.10;;;22.10;99.90;;;;;;7392225;19;20153;-87
2023/09/18 06:39:52;;;;;;;0.00;0.00;;;22.10;99.90;;;;;;7394101;19;20122;-88
2023/09/18 06:42:18;;;;;;;0.13;0.13;;;22.10;99.90;;;;;;7388718;19;20226;-85
2023/09/18 06:44:45;;;;;;;0.45;0.28;;;22.20;99.90;;;;;;7392063;19;20150;-84
2023/09/18 06:47:11;;;;;;;0.10;0.10;;;22.00;99.90;;;;;;7391492;19;20131;-86
2023/09/18 06:49:37;;;;;;;0.10;0.10;;;22.00;99.90;;;;;;7391212;19;20150;-87
2023/09/18 06:52:04;;;;;;;0.13;0.13;;;22.00;99.90;;;;;;7391777;19;20147;-83
2023/09/18 06:54:29;;;;;;;0.10;0.10;;;22.10;99.90;;;;;;7389930;19;20131;-83
2023/09/18 06:56:55;;;;;;;0.13;0.13;;;22.10;99.90;;;;;;7392570;19;20465;-84
2023/09/18 06:59:21;;;;;;;0.10;0.10;;;22.10;99.90;;;;;;7391451;19;20134;-84
2023/09/18 07:01:47;;;;;;;0.10;0.10;;;22.00;99.90;;;;;;7389075;19;20146;-86
2023/09/18 07:04:12;;;;;;;0.17;0.17;;;22.00;99.90;;;;;;7387477;19;20547;-88
2023/09/18 07:06:38;;;;;;;0.20;0.20;;;22.00;99.90;;;;;;7389876;19;20161;-87
2023/09/18 07:09:06;;;;;;;0.20;0.20;;;22.10;99.90;;;;;;7388830;19;20173;-85
2023/09/18 07:11:33;;;;;;;0.55;0.55;;;22.10;99.90;;;;;;7390365;19;20148;-86
2023/09/18 07:13:59;;;;;;;0.20;0.20;;;21.90;99.90;;;;;;7388141;19;20758;-87
2023/09/18 07:16:25;;;;;;;0.25;0.25;;;21.90;99.90;;;;;;7389919;19;20535;-86
2023/09/18 07:18:51;;;;;;;0.20;0.20;;;21.90;99.90;;;;;;7393639;19;20209;-83
2023/09/18 07:21:16;;;;;;;0.20;0.20;;;22.00;99.90;;;;;;7395182;19;20503;-83
2023/09/18 07:23:45;;;;;;;0.20;0.15;;;22.20;99.90;;;;;;7396216;19;20500;-82
2023/09/18 07:26:11;;;;;;;0.08;0.08;;;22.30;99.90;;;;;;7395769;19;20154;-86
2023/09/18 07:28:38;;;;;;;0.20;0.20;;;22.20;99.90;;;;;;7398596;19;20135;-85
2023/09/18 07:31:08;;;;;;;0.10;0.10;;;22.20;99.90;;;;;;7396537;19;20165;-84
2023/09/18 07:33:34;;;;;;;0.10;0.10;;;22.20;99.90;;;;;;7399461;19;20148;-82
2023/09/18 07:36:01;;;;;;;0.20;0.20;;;22.30;99.90;;;;;;7397179;19;20131;-81
2023/09/18 07:38:26;;;;;;;0.10;0.10;;;22.30;99.90;;;;;;7398566;19;20202;-84
2023/09/18 07:40:52;;;;;;;0.10;0.10;;;22.40;99.90;;;;;;7395017;19;20148;-83
2023/09/18 07:43:18;;;;;;;0.10;0.10;;;22.30;99.90;;;;;;7396060;19;20846;-82
2023/09/18 07:45:44;;;;;;;0.10;0.10;;;22.30;99.90;;;;;;7395992;19;20498;-84
2023/09/18 07:48:09;;;;;;;0.22;0.22;;;22.20;99.90;;;;;;7398401;19;20135;-84
2023/09/18 07:50:44;;;;;;;0.10;0.10;;;22.20;99.90;;;;;;7393408;19;20146;-85
2023/09/18 07:53:09;;;;;;;0.10;0.10;;;22.30;99.90;;;;;;7394107;19;20181;-83
2023/09/18 07:55:36;;;;;;;0.10;0.10;;;22.40;99.90;;;;;;7392546;19;20746;-81
2023/09/18 07:58:03;;;;;;;0.10;0.10;;;22.50;99.90;;;;;;7394777;19;20156;-83
2023/09/18 08:00:28;;;;;;;0.35;0.35;;;22.50;99.90;;;;;;7397876;19;20803;-82
2023/09/18 08:03:00;;;;;;;0.10;0.10;;;22.50;99.90;;;;;;7395483;19;20145;-83
2023/09/18 08:05:29;;;;;;;0.30;0.10;;;22.70;99.90;;;;;;7395249;19;20495;-82
2023/09/18 08:07:56;;;;;;;0.05;0.05;;;22.80;99.90;;;;;;7393448;19;20131;-82
2023/09/18 08:10:22;;;;;;;0.10;0.10;;;22.70;99.90;;;;;;7393429;19;20126;-81
2023/09/18 08:12:51;;;;;;;0.10;0.10;;;22.80;99.90;;;;;;7392423;19;20131;-81
2023/09/18 08:15:17;;;;;;;0.10;0.10;;;22.70;99.90;;;;;;7398518;19;20610;-81
2023/09/18 08:17:43;;;;;;;0.10;0.10;;;22.50;99.90;;;;;;7395151;19;20160;-80
2023/09/18 08:20:12;;;;;;;0.20;0.20;;;22.70;99.90;;;;;;7402959;19;20139;-81
2023/09/18 08:22:38;;;;;;;0.10;0.10;;;22.60;99.90;;;;;;7391168;19;20135;-81
2023/09/18 08:25:05;;;;;;;0.10;0.10;;;22.50;99.90;;;;;;7390743;19;20209;-81
2023/09/18 08:27:31;;;;;;;0.08;0.08;;;22.40;99.90;;;;;;7390812;19;20169;-81
2023/09/18 08:29:56;;;;;;;0.00;0.00;;;22.40;99.90;;;;;;7390935;19;20131;-82
2023/09/18 08:32:22;;;;;;;0.10;0.10;;;22.40;99.90;;;;;;7393366;19;20134;-82
2023/09/18 08:34:48;;;;;;;0.10;0.10;;;22.50;99.90;;;;;;7392015;19;20199;-81
2023/09/18 08:37:13;;;;;;;0.25;0.25;;;22.50;99.90;;;;;;7398960;19;20226;-85
2023/09/18 08:39:39;;;;;;;1.27;0.90;;;22.30;99.90;;;;;;7403664;19;20139;-80
2023/09/18 08:42:13;;;;;;;0.10;0.10;;;22.30;99.90;;;;;;7390522;19;20135;-80
2023/09/18 08:44:43;;;;;;;0.00;0.00;;;22.30;99.90;;;;;;7391056;19;20150;-86
2023/09/18 08:47:11;;;;;;;0.20;0.20;;;22.20;99.90;;;;;;7393826;19;20151;-86
2023/09/18 08:49:38;;;;;;;0.20;0.20;;;22.00;99.90;;;;;;7392564;19;20150;-87
2023/09/18 08:52:04;;;;;;;0.00;0.00;;;22.10;99.90;;;;;;7395351;19;20474;-86
2023/09/18 08:54:30;;;;;;;0.10;0.10;;;22.10;99.90;;;;;;7392787;19;20154;-86
2023/09/18 08:56:56;;;;;;;0.10;0.10;;;22.10;99.90;;;;;;7392238;19;20734;-84
2023/09/18 08:59:24;;;;;;;0.15;0.15;;;22.00;99.90;;;;;;7393492;19;20137;-86
2023/09/18 09:01:50;;;;;;;0.00;0.00;;;21.90;99.90;;;;;;7395380;19;20155;-87
2023/09/18 09:04:16;;;;;;;0.10;0.10;;;21.90;99.90;;;;;;7393329;19;20134;-86
2023/09/18 09:06:43;;;;;;;0.10;0.10;;;21.90;99.90;;;;;;7395260;19;20166;-86
2023/09/18 09:09:12;;;;;;;0.20;0.20;;;21.90;99.90;;;;;;7394463;19;20162;-86
2023/09/18 09:11:39;;;;;;;0.28;0.25;;;21.80;99.90;;;;;;7397886;19;20568;-86
2023/09/18 09:14:17;;;;;;;0.20;0.20;;;21.80;99.90;;;;;;7398177;19;20135;-84
2023/09/18 09:16:50;;;;;;;0.10;0.10;;;21.90;99.90;;;;;;7398837;19;20158;-83
2023/09/18 09:19:17;;;;;;;0.00;0.00;;;21.90;99.90;;;;;;7393619;19;20286;-81
2023/09/18 09:21:44;;;;;;;0.03;0.03;;;21.80;99.90;;;;;;7390895;19;20138;-83
2023/09/18 09:24:14;;;;;;;0.20;0.20;;;21.80;99.90;;;;;;7392772;19;20170;-82
2023/09/18 09:26:41;;;;;;;0.10;0.10;;;21.60;99.90;;;;;;7390814;19;20702;-82
2023/09/18 09:29:18;;;;;;;0.10;0.10;;;21.60;99.90;;;;;;7398127;19;20138;-83
2023/09/18 09:31:47;;;;;;;0.17;0.17;;;21.40;99.90;;;;;;7400334;19;20134;-82
2023/09/18 09:34:31;;;;;;;0.10;0.10;;;21.50;99.90;;;;;;7392224;19;20134;-85
2023/09/18 09:36:57;;;;;;;0.08;0.08;;;21.40;99.90;;;;;;7396387;19;20575;-84
2023/09/18 09:39:25;;;;;;;0.05;0.05;;;21.40;99.90;;;;;;7396888;19;20146;-85
2023/09/18 09:41:52;;;;;;;0.10;0.10;;;21.40;99.90;;;;;;7394420;19;20143;-84
2023/09/18 09:44:20;;;;;;;0.25;0.25;;;21.40;99.90;;;;;;7396520;19;20158;-85
2023/09/18 09:46:48;;;;;;;0.20;0.20;;;21.40;99.90;;;;;;7401361;19;20150;-83
2023/09/18 09:49:15;;;;;;;0.10;0.10;;;21.50;99.90;;;;;;7397433;19;20131;-86
2023/09/18 09:51:42;;;;;;;0.20;0.20;;;21.40;99.90;;;;;;7397008;19;20134;-84
2023/09/18 09:54:08;;;;;;;0.22;0.22;;;21.40;99.90;;;;;;7392612;19;20142;-83
2023/09/18 09:56:45;;;;;;;0.30;0.30;;;21.40;99.90;;;;;;7396258;19;20170;-86
2023/09/18 09:59:14;;;;;;;0.20;0.20;;;21.20;99.90;;;;;;7394411;19;20599;-84
2023/09/18 10:01:40;;;;;;;0.03;0.03;;;21.50;99.90;;;;;;7393119;19;20161;-85
2023/09/18 10:04:17;;;;;;;0.75;0.30;;;21.60;99.90;;;;;;7390361;19;20227;-84
2023/09/18 10:06:46;;;;;;;0.00;0.00;;;21.70;99.90;;;;;;7393393;19;20134;-84
2023/09/18 10:09:15;;;;;;;0.20;0.20;;;21.80;99.90;;;;;;7390943;19;20155;-84
2023/09/18 10:11:44;;;;;;;0.28;0.28;;;21.60;99.90;;;;;;7399356;19;20167;-84
2023/09/18 10:14:17;;;;;;;0.17;0.17;;;21.70;99.90;;;;;;7391669;19;20456;-84
2023/09/18 10:16:49;;;;;;;0.10;0.10;;;21.80;99.90;;;;;;7390796;19;20139;-84
2023/09/18 10:19:40;;;;;;;0.13;0.13;;;21.70;99.90;;;;;;7391328;19;20531;-84
2023/09/18 10:22:05;;;;;;;0.20;0.20;;;21.60;99.90;;;;;;7388802;19;20455;-85
2023/09/18 10:24:41;;;;;;;0.00;0.00;;;21.70;99.90;;;;;;7390683;19;20188;-86
2023/09/18 10:27:08;;;;;;;0.10;0.10;;;21.70;99.90;;;;;;7393164;19;20471;-82
2023/09/18 10:29:36;;;;;;;0.10;0.10;;;21.70;99.90;;;;;;7390490;19;20138;-86
2023/09/18 10:32:09;;;;;;;0.10;0.10;;;21.70;99.90;;;;;;7392190;19;20153;-85
2023/09/18 10:34:36;;;;;;;0.68;0.30;;;21.60;99.90;;;;;;7392908;19;20579;-85
2023/09/18 10:37:07;;;;;;;0.10;0.10;;;21.70;99.90;;;;;;7397639;19;20134;-84
2023/09/18 10:39:39;;;;;;;0.10;0.10;;;21.50;99.90;;;;;;7391893;19;20134;-83
2023/09/18 10:42:08;;;;;;;0.20;0.20;;;21.60;99.90;;;;;;7391212;19;20197;-83
2023/09/18 10:44:34;;;;;;;0.10;0.10;;;21.30;99.90;;;;;;7390698;19;20126;-83
2023/09/18 10:47:02;;;;;;;0.00;0.00;;;21.40;99.90;;;;;;7389968;19;20202;-83
2023/09/18 10:49:30;;;;;;;0.08;0.08;;;21.50;99.90;;;;;;7387872;19;20138;-84
2023/09/18 10:51:56;;;;;;;0.10;0.10;;;21.40;99.90;;;;;;7389040;19;20134;-84
2023/09/18 10:54:24;;;;;;;0.20;0.20;;;21.40;99.90;;;;;;7388300;19;20131;-85
2023/09/18 10:56:51;;;;;;;0.08;0.08;;;21.30;99.90;;;;;;7401139;19;20146;-83
2023/09/18 10:59:17;;;;;;;0.10;0.10;;;21.40;99.90;;;;;;7397345;19;20143;-85
2023/09/18 11:01:44;;;;;;;0.03;0.03;;;21.40;99.90;;;;;;7391752;19;20131;-84
2023/09/18 11:04:14;;;;;;;0.10;0.10;;;21.40;99.90;;;;;;7396087;19;20177;-82
2023/09/18 11:06:55;;;;;;;0.00;0.00;;;21.40;99.90;;;;;;7392893;19;20164;-83
2023/09/18 11:09:24;;;;;;;0.10;0.10;;;21.40;99.90;;;;;;7391163;19;20130;-82
2023/09/18 11:12:04;;;;;;;0.60;0.50;;;21.50;99.90;;;;;;7392706;19;20600;-87
2023/09/18 11:14:57;;;;;;;0.20;0.20;;;21.40;99.90;;;;;;7391713;19;20178;-85
2023/09/18 11:17:58;;;;;;;0.08;0.08;;;21.10;99.90;;;;;;7390999;19;20158;-85
2023/09/18 11:20:25;;;;;;;0.10;0.10;;;21.20;99.90;;;;;;7390186;19;20145;-86
2023/09/18 11:23:09;;;;;;;0.65;0.45;;;21.40;99.90;;;;;;7386095;19;20143;-84
2023/09/18 11:25:41;;;;;;;0.08;0.08;;;21.30;99.90;;;;;;7390067;19;20151;-85
2023/09/18 11:28:12;;;;;;;0.10;0.10;;;21.40;99.90;;;;;;7391446;19;20150;-82
2023/09/18 11:30:47;;;;;;;0.10;0.10;;;21.40;99.90;;;;;;7389586;19;20135;-85
2023/09/18 11:33:13;;;;;;;0.20;0.20;;;21.60;99.90;;;;;;7387050;19;20168;-83
2023/09/18 11:35:52;;;;;;;0.05;0.05;;;21.50;99.90;;;;;;7388449;19;20194;-83
2023/09/18 11:38:18;;;;;;;0.10;0.10;;;21.50;99.90;;;;;;7387966;19;20155;-84
2023/09/18 11:40:45;;;;;;;0.10;0.10;;;21.60;99.90;;;;;;7393349;19;20127;-85
2023/09/18 11:43:30;;;;;;;0.10;0.10;;;21.70;99.90;;;;;;7390712;19;20146;-85
2023/09/18 11:45:58;;;;;;;0.10;0.10;;;21.70;99.90;;;;;;7386701;19;20135;-84
2023/09/18 11:48:27;;;;;;;0.10;0.10;;;21.70;99.90;;;;;;7390000;19;20165;-85
2023/09/18 11:50:54;;;;;;;0.52;0.20;;;21.80;99.90;;;;;;7391600;19;20131;-86
2023/09/18 11:53:21;;;;;;;0.10;0.10;;;21.80;99.90;;;;;;7388027;19;20194;-83
2023/09/18 11:55:47;;;;;;;0.10;0.10;;;21.80;99.90;;;;;;7397577;19;20150;-83
2023/09/18 11:58:13;;;;;;;0.05;0.05;;;21.80;99.90;;;;;;7387308;19;20603;-83
2023/09/18 12:00:47;;;;;;;0.10;0.10;;;21.70;99.90;;;;;;7388815;19;20131;-84
2023/09/18 12:03:17;;;;;;;0.10;0.10;;;21.80;99.90;;;;;;7386223;19;20166;-81
2023/09/18 12:05:44;;;;;;;0.05;0.05;;;21.70;99.90;;;;;;7388717;19;20174;-83
2023/09/18 12:08:11;;;;;;;0.10;0.10;;;21.60;99.90;;;;;;7395129;19;20153;-84
2023/09/18 12:10:37;;;;;;;0.10;0.10;;;21.70;99.90;;;;;;7394669;19;20138;-84
2023/09/18 12:13:08;;;;;;;0.10;0.10;;;21.70;99.90;;;;;;7391694;19;20286;-84
2023/09/18 12:15:34;;;;;;;0.10;0.10;;;21.70;99.90;;;;;;7392568;19;20226;-82
2023/09/18 12:18:07;;;;;;;0.10;0.10;;;21.70;99.90;;;;;;7394077;19;20158;-83
2023/09/18 12:20:34;;;;;;;0.10;0.10;;;21.80;99.90;;;;;;7394018;19;20131;-84
2023/09/18 12:23:00;;;;;;;0.10;0.10;;;21.90;99.90;;;;;;7391859;19;20142;-85
2023/09/18 12:25:26;;;;;;;0.00;0.00;;;21.80;99.90;;;;;;7394713;19;20607;-86
2023/09/18 12:27:53;;;;;;;0.10;0.10;;;21.80;99.90;;;;;;7394097;19;20139;-85
2023/09/18 12:30:20;;;;;;;0.10;0.10;;;21.70;99.90;;;;;;7395097;19;20143;-83
2023/09/18 12:32:49;;;;;;;0.10;0.10;;;21.70;99.90;;;;;;7393763;19;20218;-83
2023/09/18 12:35:15;;;;;;;0.10;0.10;;;21.60;99.90;;;;;;7393945;19;20146;-82
2023/09/18 12:37:41;;;;;;;0.20;0.20;;;21.70;99.90;;;;;;7396190;19;20135;-83
2023/09/18 12:40:21;;;;;;;0.10;0.10;;;21.40;99.90;;;;;;7394636;19;20161;-85
2023/09/18 12:42:47;;;;;;;0.10;0.10;;;21.60;99.90;;;;;;7391968;19;20157;-85
2023/09/18 12:45:13;;;;;;;0.20;0.20;;;21.70;99.90;;;;;;7394795;19;20151;-85
2023/09/18 12:47:40;;;;;;;0.10;0.10;;;21.70;99.90;;;;;;7395090;19;20460;-84
2023/09/18 12:50:06;;;;;;;0.10;0.10;;;21.90;99.90;;;;;;7398098;19;20142;-84